Time;durP1;ratioP1;P1;durP2;ratioP2;P2;SDS_P1;SDS_P2;PMS_P1;PMS_P2;Temp;Humidity;BMP_temperature;BMP_pressure;BME280_temperature;BME280_humidity;BME280_pressure;Samples;Min_cycle;Max_cycle;Signal;HPM_P1;HPM_P2
2022/07/22 00:01:29;;;;;;;;;15.67;13.33;;;;;25.10;52.55;101655.13;5077489;27;45377;-71
2022/07/22 00:03:54;;;;;;;;;14.00;12.00;;;;;25.11;52.99;101661.44;5077275;27;45413;-71
2022/07/22 00:06:20;;;;;;;;;12.00;12.00;;;;;25.08;53.06;101664.47;5078105;27;45339;-71
2022/07/22 00:08:46;;;;;;;;;12.00;9.00;;;;;25.03;52.71;101659.44;5058674;28;45475;-71
2022/07/22 00:11:11;;;;;;;;;13.67;12.00;;;;;25.00;52.77;101668.72;5077136;27;45442;-72
2022/07/22 00:13:36;;;;;;;;;11.33;11.33;;;;;24.99;53.37;101671.59;5076937;27;46346;-72
2022/07/22 00:16:02;;;;;;;;;11.00;11.00;;;;;25.02;52.81;101663.13;5076708;27;45377;-72
2022/07/22 00:18:28;;;;;;;;;12.33;11.67;;;;;25.01;52.93;101661.44;5077133;27;45774;-72
2022/07/22 00:20:53;;;;;;;;;11.33;11.33;;;;;24.94;52.49;101660.25;5072846;27;45532;-72
2022/07/22 00:23:19;;;;;;;;;11.33;11.33;;;;;24.85;53.31;101651.88;5082671;27;45843;-72
2022/07/22 00:25:44;;;;;;;;;10.67;10.67;;;;;24.91;53.24;101661.41;5078630;27;45708;-72
2022/07/22 00:28:09;;;;;;;;;14.00;14.00;;;;;24.81;53.27;101642.25;5079517;27;45582;-72
2022/07/22 00:30:35;;;;;;;;;12.67;12.67;;;;;24.84;53.07;101655.63;5078648;27;45459;-72
2022/07/22 00:33:00;;;;;;;;;20.33;18.33;;;;;24.73;53.34;101643.97;5081609;27;46292;-72
2022/07/22 00:35:26;;;;;;;;;12.67;12.67;;;;;24.76;53.20;101647.25;5076497;27;45475;-72
2022/07/22 00:37:51;;;;;;;;;18.33;14.67;;;;;24.78;53.61;101649.84;5089855;27;45398;-72
2022/07/22 00:40:16;;;;;;;;;16.33;14.33;;;;;24.74;53.38;101646.53;5082593;27;45634;-72
2022/07/22 00:42:42;;;;;;;;;13.67;12.00;;;;;24.69;53.78;101635.19;5085660;27;46270;-72
2022/07/22 00:45:08;;;;;;;;;13.33;12.00;;;;;24.74;53.06;101630.16;5082744;27;45451;-72
2022/07/22 00:47:34;;;;;;;;;13.67;13.33;;;;;24.74;53.04;101629.31;5076179;27;45565;-72
2022/07/22 00:49:59;;;;;;;;;15.33;12.33;;;;;24.60;53.41;101619.63;5097009;27;45531;-72
2022/07/22 00:52:25;;;;;;;;;10.33;10.33;;;;;24.61;53.62;101638.59;5085290;27;46040;-72
2022/07/22 00:54:51;;;;;;;;;16.33;12.67;;;;;24.57;53.56;101620.78;5087402;27;45553;-72
2022/07/22 00:57:17;;;;;;;;;16.67;13.67;;;;;24.49;53.94;101612.44;5076236;27;45477;-72
2022/07/22 00:59:42;;;;;;;;;11.33;11.33;;;;;24.54;53.81;101623.78;5076685;27;45519;-72
2022/07/22 01:02:09;;;;;;;;;16.67;15.67;;;;;24.51;53.89;101629.50;5067595;28;46346;-72
2022/07/22 01:04:34;;;;;;;;;13.33;13.33;;;;;24.52;53.25;101623.06;5076212;27;45400;-72
2022/07/22 01:06:59;;;;;;;;;15.67;13.00;;;;;24.51;53.67;101618.59;5082878;27;45525;-72
2022/07/22 01:09:25;;;;;;;;;14.67;14.00;;;;;24.49;53.47;101623.34;5079343;27;45771;-71
2022/07/22 01:11:50;;;;;;;;;13.67;11.33;;;;;24.45;53.45;101624.56;5075881;27;45782;-71
2022/07/22 01:14:15;;;;;;;;;15.67;15.67;;;;;24.40;53.57;101627.69;5076607;27;45387;-72
2022/07/22 01:16:41;;;;;;;;;14.33;14.33;;;;;24.35;53.71;101620.91;5089826;27;45331;-72
2022/07/22 01:19:06;;;;;;;;;14.67;13.33;;;;;24.25;54.20;101618.13;5070773;27;45495;-71
2022/07/22 01:21:32;;;;;;;;;15.33;14.00;;;;;24.18;54.39;101620.53;5081467;27;46276;-71
2022/07/22 01:23:57;;;;;;;;;13.00;12.00;;;;;24.15;54.69;101609.91;5096262;27;45506;-71
2022/07/22 01:26:23;;;;;;;;;14.67;12.00;;;;;24.18;54.04;101619.69;5079367;27;45545;-71
2022/07/22 01:28:48;;;;;;;;;14.67;14.67;;;;;24.14;54.18;101615.50;5084730;27;45433;-71
2022/07/22 01:31:14;;;;;;;;;10.00;9.00;;;;;24.02;54.63;101603.81;5081287;27;45435;-71
2022/07/22 01:33:39;;;;;;;;;11.00;10.00;;;;;24.10;54.31;101616.78;5075744;27;45459;-71
2022/07/22 01:36:06;;;;;;;;;13.33;10.67;;;;;24.08;54.64;101613.31;5075794;27;45458;-71
2022/07/22 01:38:31;;;;;;;;;11.00;11.00;;;;;24.07;54.13;101612.47;5075706;27;45483;-71
2022/07/22 01:40:57;;;;;;;;;11.00;10.00;;;;;23.97;54.40;101592.47;5075490;27;46403;-71
2022/07/22 01:43:22;;;;;;;;;11.00;8.67;;;;;24.04;54.25;101612.72;5075479;27;45482;-71
2022/07/22 01:45:51;;;;;;;;;12.33;11.33;;;;;24.02;54.51;101607.41;5081967;27;45787;-72
2022/07/22 01:48:17;;;;;;;;;13.00;10.33;;;;;24.05;53.95;101609.00;5109731;27;45573;-71
2022/07/22 01:50:43;;;;;;;;;10.67;9.00;;;;;24.04;54.33;101615.44;5092401;27;47230;-72
2022/07/22 01:53:08;;;;;;;;;10.33;9.33;;;;;23.94;53.78;101599.03;5104591;27;45444;-71
2022/07/22 01:55:34;;;;;;;;;11.33;8.00;;;;;24.01;54.31;101612.97;5104539;27;45373;-71
2022/07/22 01:57:59;;;;;;;;;8.67;8.00;;;;;23.99;54.07;101602.22;5099759;27;45422;-71
2022/07/22 02:00:25;;;;;;;;;9.33;7.67;;;;;24.04;53.71;101607.25;5095759;27;45441;-71
2022/07/22 02:02:51;;;;;;;;;12.33;8.00;;;;;23.99;53.46;101604.09;5095541;27;45533;-71
2022/07/22 02:05:17;;;;;;;;;12.33;10.00;;;;;23.87;54.07;101580.66;5109105;27;45622;-71
2022/07/22 02:07:42;;;;;;;;;8.67;8.67;;;;;23.94;53.94;101593.59;5095443;27;45631;-71
2022/07/22 02:10:08;;;;;;;;;9.33;9.33;;;;;23.91;54.05;101596.59;5095613;27;46469;-71
2022/07/22 02:12:34;;;;;;;;;10.67;9.00;;;;;23.87;53.96;101596.97;5095767;27;45875;-72
2022/07/22 02:15:01;;;;;;;;;8.33;7.33;;;;;23.77;54.39;101595.06;5078903;27;45556;-71
2022/07/22 02:17:26;;;;;;;;;9.33;8.33;;;;;23.84;54.16;101600.84;5084043;27;45505;-71
2022/07/22 02:19:52;;;;;;;;;9.00;9.00;;;;;23.80;53.69;101602.09;5095311;27;46049;-71
2022/07/22 02:22:17;;;;;;;;;9.33;7.67;;;;;23.66;53.83;101583.34;5108136;27;45526;-71
2022/07/22 02:24:42;;;;;;;;;9.33;8.00;;;;;23.73;53.90;101600.88;5077689;27;45520;-71
2022/07/22 02:27:08;;;;;;;;;8.67;8.67;;;;;23.68;54.57;101597.69;5095820;27;45475;-71
2022/07/22 02:29:33;;;;;;;;;8.33;7.33;;;;;23.61;54.56;101605.50;5095498;27;45509;-71
2022/07/22 02:31:59;;;;;;;;;9.00;8.67;;;;;23.65;54.26;101611.53;5095332;27;45725;-71
2022/07/22 02:34:25;;;;;;;;;7.00;7.00;;;;;23.62;54.00;101607.22;5095401;27;45423;-71
2022/07/22 02:36:51;;;;;;;;;8.33;8.33;;;;;23.58;54.75;101611.22;5077073;27;45426;-71
2022/07/22 02:39:16;;;;;;;;;10.33;9.00;;;;;23.57;54.51;101612.19;5076993;27;45382;-72
2022/07/22 02:41:41;;;;;;;;;7.67;7.67;;;;;23.57;54.17;101595.84;5095413;27;45447;-71
2022/07/22 02:44:07;;;;;;;;;9.00;7.33;;;;;23.45;54.36;101586.03;5095150;27;45321;-71
2022/07/22 02:46:32;;;;;;;;;10.00;8.00;;;;;23.59;54.29;101604.75;5095507;27;45557;-71
2022/07/22 02:48:58;;;;;;;;;9.33;9.00;;;;;23.58;53.96;101605.78;5076778;27;47099;-71
2022/07/22 02:51:24;;;;;;;;;8.33;8.33;;;;;23.55;54.03;101604.19;5094909;27;45506;-71
2022/07/22 02:53:49;;;;;;;;;12.67;10.00;;;;;23.50;54.74;101603.69;5082016;27;45508;-71
2022/07/22 02:56:15;;;;;;;;;8.00;6.67;;;;;23.54;54.12;101596.13;5107392;27;45513;-72
2022/07/22 02:58:40;;;;;;;;;13.67;9.67;;;;;23.48;54.30;101589.34;5095043;27;46639;-71
2022/07/22 03:01:06;;;;;;;;;7.33;7.33;;;;;23.48;54.82;101599.38;5094927;27;45398;-72
2022/07/22 03:03:32;;;;;;;;;8.00;8.00;;;;;23.25;55.20;101574.97;5095293;27;45429;-71
2022/07/22 03:05:57;;;;;;;;;9.00;8.00;;;;;23.32;55.15;101591.63;5094876;27;45538;-72
2022/07/22 03:08:23;;;;;;;;;12.00;8.67;;;;;23.14;55.30;101572.31;5093728;27;47145;-71
2022/07/22 03:10:48;;;;;;;;;7.67;7.67;;;;;23.18;55.74;101588.22;5098420;27;45427;-71
2022/07/22 03:13:14;;;;;;;;;9.33;7.33;;;;;23.22;55.59;101582.53;5098827;27;45630;-71
2022/07/22 03:15:39;;;;;;;;;10.00;9.33;;;;;23.14;55.76;101577.75;5098805;27;45341;-71
2022/07/22 03:18:04;;;;;;;;;8.33;8.33;;;;;23.11;55.83;101581.56;5098038;27;46139;-71
2022/07/22 03:20:30;;;;;;;;;10.00;8.33;;;;;23.08;55.43;101583.69;5079915;27;45394;-71
2022/07/22 03:22:55;;;;;;;;;13.00;10.33;;;;;23.11;55.48;101589.75;5098406;27;45521;-71
2022/07/22 03:25:20;;;;;;;;;11.00;9.00;;;;;23.04;56.06;101580.38;5098443;27;45449;-72
2022/07/22 03:27:46;;;;;;;;;10.67;8.67;;;;;22.99;56.27;101565.41;5086147;27;45465;-71
2022/07/22 03:30:13;;;;;;;;;9.00;9.00;;;;;23.05;55.46;101582.06;5077206;27;45330;-71
2022/07/22 03:32:38;;;;;;;;;8.33;8.33;;;;;23.01;55.66;101580.59;5098188;27;45435;-71
2022/07/22 03:35:04;;;;;;;;;8.67;8.67;;;;;23.05;55.87;101594.81;5083387;27;45585;-71
2022/07/22 03:37:30;;;;;;;;;10.00;8.33;;;;;22.97;55.60;101573.69;5098116;27;47326;-71
2022/07/22 03:39:55;;;;;;;;;9.00;9.00;;;;;23.00;55.30;101589.75;5098057;27;45530;-71
2022/07/22 03:42:21;;;;;;;;;9.67;9.67;;;;;22.99;55.86;101584.44;5097984;27;45444;-72
2022/07/22 03:44:46;;;;;;;;;12.33;10.00;;;;;22.89;56.36;101587.03;5092664;27;45529;-71
2022/07/22 03:47:16;;;;;;;;;9.00;7.33;;;;;22.85;56.31;101590.97;5097468;27;46876;-71
2022/07/22 03:49:42;;;;;;;;;6.67;6.67;;;;;22.85;56.35;101588.25;5079290;27;46083;-71
2022/07/22 03:52:07;;;;;;;;;9.33;8.67;;;;;22.80;55.92;101587.78;5095714;27;45527;-71
2022/07/22 03:54:32;;;;;;;;;8.67;7.67;;;;;22.72;56.20;101596.56;5088786;27;45324;-71
2022/07/22 03:56:58;;;;;;;;;6.33;6.33;;;;;22.64;56.90;101580.91;5107825;27;45343;-71
2022/07/22 03:59:23;;;;;;;;;8.33;8.33;;;;;22.72;56.43;101594.72;5079206;27;45477;-71
2022/07/22 04:01:49;;;;;;;;;9.67;8.33;;;;;22.67;56.27;101590.66;5098018;27;45900;-71
2022/07/22 04:04:14;;;;;;;;;10.67;9.67;;;;;22.66;56.89;101595.19;5097635;27;45502;-71
2022/07/22 04:06:39;;;;;;;;;9.67;9.67;;;;;22.59;56.90;101593.13;5095194;27;46573;-71
2022/07/22 04:09:04;;;;;;;;;11.67;8.00;;;;;22.56;57.04;101591.50;5097395;27;45468;-72
2022/07/22 04:11:30;;;;;;;;;9.67;9.67;;;;;22.52;57.08;101590.03;5075784;28;45462;-71
2022/07/22 04:13:55;;;;;;;;;9.00;9.00;;;;;22.43;56.70;101588.94;5087361;27;45530;-71
2022/07/22 04:16:21;;;;;;;;;14.00;8.00;;;;;22.40;56.97;101596.47;5096993;27;46109;-71
2022/07/22 04:18:46;;;;;;;;;12.33;11.00;;;;;22.34;57.04;101586.97;5088811;27;45667;-71
2022/07/22 04:21:11;;;;;;;;;9.00;8.00;;;;;22.32;57.01;101578.91;5091158;27;45663;-71
2022/07/22 04:23:39;;;;;;;;;13.00;9.33;;;;;22.31;57.63;101582.63;5097314;27;45652;-71
2022/07/22 04:26:05;;;;;;;;;10.00;10.00;;;;;22.26;57.05;101570.41;5097093;27;45420;-71
2022/07/22 04:28:33;;;;;;;;;11.33;10.67;;;;;22.22;57.25;101580.66;5093050;27;45466;-71
2022/07/22 04:30:58;;;;;;;;;8.33;8.33;;;;;22.29;57.21;101581.03;5087086;27;45475;-71
2022/07/22 04:33:24;;;;;;;;;10.67;8.00;;;;;22.30;57.66;101586.31;5095122;27;45425;-71
2022/07/22 04:35:49;;;;;;;;;9.33;8.00;;;;;22.26;57.19;101583.97;5084654;27;46887;-71
2022/07/22 04:38:17;;;;;;;;;11.00;9.67;;;;;22.17;57.36;101569.22;5097099;27;45535;-71
2022/07/22 04:40:42;;;;;;;;;9.00;9.00;;;;;22.17;57.83;101569.22;5090787;27;45494;-71
2022/07/22 04:43:08;;;;;;;;;13.00;8.67;;;;;22.24;57.98;101569.66;5089499;27;45474;-71
2022/07/22 04:45:33;;;;;;;;;9.00;9.00;;;;;22.17;57.84;101561.09;5092296;27;50739;-71
2022/07/22 04:47:58;;;;;;;;;9.33;9.00;;;;;22.33;57.25;101571.63;5068264;27;45520;-71
2022/07/22 04:50:24;;;;;;;;;11.33;8.67;;;;;22.34;57.61;101568.81;5096949;27;45316;-71
2022/07/22 04:52:49;;;;;;;;;9.00;9.00;;;;;22.20;57.28;101550.00;5097348;27;45500;-71
2022/07/22 04:55:14;;;;;;;;;9.00;9.00;;;;;22.25;57.81;101572.25;5087111;27;46496;-71
2022/07/22 04:57:40;;;;;;;;;15.33;10.00;;;;;22.24;58.10;101564.22;5100681;27;45458;-71
2022/07/22 05:00:06;;;;;;;;;10.00;10.00;;;;;22.15;57.41;101544.09;5096870;27;45411;-72
2022/07/22 05:02:32;;;;;;;;;9.33;9.00;;;;;22.15;57.39;101549.50;5096808;27;45411;-71
2022/07/22 05:04:58;;;;;;;;;9.00;8.00;;;;;22.24;58.06;101564.22;5081989;27;47035;-71
2022/07/22 05:07:23;;;;;;;;;10.33;9.00;;;;;22.16;57.62;101559.38;5077776;27;45800;-71
2022/07/22 05:09:49;;;;;;;;;10.00;9.00;;;;;22.23;57.82;101562.50;5082139;27;45408;-72
2022/07/22 05:12:14;;;;;;;;;9.33;8.00;;;;;22.25;57.96;101552.38;5097135;27;45806;-72
2022/07/22 05:14:39;;;;;;;;;10.33;8.00;;;;;22.37;57.21;101561.41;5078076;27;46136;-72
2022/07/22 05:17:10;;;;;;;;;9.00;9.00;;;;;22.39;57.11;101554.00;5096062;27;45547;-72
2022/07/22 05:19:39;;;;;;;;;8.33;8.33;;;;;22.40;57.39;101555.72;5096429;27;45332;-72
2022/07/22 05:22:05;;;;;;;;;11.33;9.67;;;;;22.37;57.08;101551.38;5096874;27;45518;-72
2022/07/22 05:24:31;;;;;;;;;8.67;8.67;;;;;22.45;56.91;101557.09;5096325;27;46771;-72
2022/07/22 05:26:57;;;;;;;;;10.00;9.00;;;;;22.49;57.28;101552.25;5077676;27;45601;-72
2022/07/22 05:29:22;;;;;;;;;11.33;8.00;;;;;22.44;57.02;101540.91;5096270;27;45502;-72
2022/07/22 05:31:48;;;;;;;;;7.00;7.00;;;;;22.45;57.31;101531.75;5095227;27;45505;-72
2022/07/22 05:34:13;;;;;;;;;10.00;8.00;;;;;22.52;57.23;101549.28;5095973;27;45987;-72
2022/07/22 05:36:38;;;;;;;;;11.00;9.33;;;;;22.62;56.46;101543.97;5096033;27;45766;-72
2022/07/22 05:39:04;;;;;;;;;9.33;8.00;;;;;22.68;56.55;101540.72;5096305;27;45551;-72
2022/07/22 05:41:29;;;;;;;;;8.33;7.33;;;;;22.79;56.50;101548.88;5096197;27;45513;-72
2022/07/22 05:43:54;;;;;;;;;13.33;9.33;;;;;22.86;56.29;101547.38;5095672;27;47102;-72
2022/07/22 05:46:20;;;;;;;;;10.00;8.67;;;;;22.88;56.20;101549.97;5095734;27;45495;-73
2022/07/22 05:48:45;;;;;;;;;8.00;8.00;;;;;22.91;55.55;101552.44;5095819;27;45508;-72
2022/07/22 05:51:14;;;;;;;;;10.33;7.33;;;;;22.89;55.97;101541.66;5096417;27;45450;-72
2022/07/22 05:53:41;;;;;;;;;5.00;4.00;;;;;22.78;55.25;101558.03;5093326;27;45573;-72
2022/07/22 05:56:08;;;;;;;;;9.67;9.00;;;;;22.59;56.30;101546.91;5105375;27;45537;-71
2022/07/22 05:58:34;;;;;;;;;8.00;8.00;;;;;22.46;57.34;101538.91;5095231;27;45491;-72
2022/07/22 06:00:59;;;;;;;;;6.33;6.33;;;;;22.41;57.34;101541.16;5076998;27;45434;-74
2022/07/22 06:03:24;;;;;;;;;13.00;9.33;;;;;22.31;57.38;101538.28;5092258;27;46223;-75
2022/07/22 06:05:50;;;;;;;;;10.67;9.33;;;;;22.21;57.76;101535.47;5091210;27;46518;-75
2022/07/22 06:08:15;;;;;;;;;9.67;8.67;;;;;22.16;58.28;101528.66;5094563;27;45447;-75
2022/07/22 06:10:41;;;;;;;;;10.00;9.00;;;;;22.13;57.70;101532.47;5077026;27;45466;-75
2022/07/22 06:13:06;;;;;;;;;12.33;10.67;;;;;22.18;58.08;101556.53;5088130;27;45320;-75
2022/07/22 06:15:32;;;;;;;;;11.33;10.67;;;;;22.11;58.38;101545.31;5093533;27;45477;-72
2022/07/22 06:17:57;;;;;;;;;10.00;10.00;;;;;22.08;58.36;101551.84;5088428;27;45454;-72
2022/07/22 06:20:22;;;;;;;;;10.33;9.67;;;;;22.13;58.63;101548.78;5074519;27;45473;-72
2022/07/22 06:22:48;;;;;;;;;9.00;9.00;;;;;22.06;58.93;101548.38;5094277;27;46259;-72
2022/07/22 06:25:14;;;;;;;;;11.33;8.67;;;;;22.09;59.04;101545.41;5083553;27;45507;-72
2022/07/22 06:27:39;;;;;;;;;9.00;7.67;;;;;22.20;58.87;101536.44;5079914;27;46018;-72
2022/07/22 06:30:05;;;;;;;;;9.00;9.00;;;;;22.25;58.44;101526.09;5077918;27;45493;-72
2022/07/22 06:32:30;;;;;;;;;11.33;9.00;;;;;22.36;58.02;101536.09;5084781;27;46155;-72
2022/07/22 06:34:56;;;;;;;;;9.67;8.00;;;;;22.43;57.58;101542.75;5090022;27;45513;-73
2022/07/22 06:37:21;;;;;;;;;11.33;10.00;;;;;22.42;58.19;101541.00;5075227;27;45537;-72
2022/07/22 06:39:47;;;;;;;;;14.33;12.00;;;;;22.33;58.23;101526.31;5080165;27;45549;-72
2022/07/22 06:42:13;;;;;;;;;9.00;8.33;;;;;22.43;57.83;101553.63;5077699;27;47128;-72
2022/07/22 06:44:38;;;;;;;;;13.33;11.33;;;;;22.43;57.89;101536.44;5088817;27;45756;-72
2022/07/22 06:47:03;;;;;;;;;15.33;11.33;;;;;22.54;57.56;101541.88;5083150;27;45540;-72
2022/07/22 06:49:29;;;;;;;;;12.33;10.00;;;;;22.51;57.76;101540.25;5079066;27;45534;-72
2022/07/22 06:51:54;;;;;;;;;10.00;10.00;;;;;22.62;57.04;101552.13;5074562;27;46197;-72
2022/07/22 06:54:19;;;;;;;;;13.00;12.00;;;;;22.66;57.64;101565.31;5081856;27;45396;-72
2022/07/22 06:56:45;;;;;;;;;12.00;10.33;;;;;22.63;56.93;101567.44;5092242;27;45678;-72
2022/07/22 06:59:10;;;;;;;;;11.67;11.67;;;;;22.64;57.94;101569.16;5098612;27;45514;-72
2022/07/22 07:01:36;;;;;;;;;9.67;6.67;;;;;22.73;57.15;101563.84;5098406;27;47131;-72
2022/07/22 07:04:02;;;;;;;;;10.00;10.00;;;;;22.70;56.96;101547.78;5098636;27;45535;-72
2022/07/22 07:06:27;;;;;;;;;12.00;10.67;;;;;22.84;57.10;101559.38;5098191;27;45540;-75
2022/07/22 07:08:52;;;;;;;;;13.33;11.67;;;;;22.95;56.78;101556.63;5088319;27;45497;-71
2022/07/22 07:11:18;;;;;;;;;17.00;14.00;;;;;23.15;56.90;101547.66;5074008;27;47487;-71
2022/07/22 07:13:43;;;;;;;;;11.33;10.67;;;;;23.34;56.34;101540.69;5066998;28;45513;-72
2022/07/22 07:16:08;;;;;;;;;11.00;10.00;;;;;23.55;56.24;101532.53;5087931;27;45716;-71
2022/07/22 07:18:34;;;;;;;;;9.00;7.67;;;;;23.69;55.53;101517.72;5084189;27;45425;-71
2022/07/22 07:20:59;;;;;;;;;13.00;11.67;;;;;23.88;54.73;101519.75;5092313;27;47108;-71
2022/07/22 07:23:24;;;;;;;;;17.00;12.67;;;;;24.05;55.58;101523.72;5091585;27;45379;-71
2022/07/22 07:25:50;;;;;;;;;12.33;12.00;;;;;24.19;54.40;101516.03;5098199;27;45443;-71
2022/07/22 07:28:15;;;;;;;;;13.33;10.00;;;;;24.35;54.95;101518.25;5089918;27;45451;-71
2022/07/22 07:30:41;;;;;;;;;10.00;9.33;;;;;24.48;53.83;101519.91;5093635;27;45963;-72
2022/07/22 07:33:06;;;;;;;;;13.67;11.00;;;;;24.59;53.29;101508.88;5080067;27;45380;-71
2022/07/22 07:35:32;;;;;;;;;12.67;11.33;;;;;24.58;53.43;101496.25;5093433;27;45825;-71
2022/07/22 07:37:57;;;;;;;;;10.33;10.33;;;;;24.77;52.63;101498.16;5092882;27;45503;-72
2022/07/22 07:40:22;;;;;;;;;9.33;9.33;;;;;24.93;52.69;101524.88;5076820;27;46049;-71
2022/07/22 07:42:47;;;;;;;;;12.33;10.67;;;;;25.03;52.51;101539.41;5093657;27;45437;-71
2022/07/22 07:45:14;;;;;;;;;12.00;10.33;;;;;25.09;51.79;101530.63;5089832;27;45540;-71
2022/07/22 07:47:39;;;;;;;;;10.67;9.67;;;;;25.06;50.96;101539.97;5094223;27;45454;-71
2022/07/22 07:50:07;;;;;;;;;12.00;10.33;;;;;25.05;51.49;101537.38;5090084;27;46347;-72
2022/07/22 07:52:38;;;;;;;;;12.00;10.67;;;;;25.14;51.37;101539.25;5093633;27;45534;-72
2022/07/22 07:55:04;;;;;;;;;12.00;10.00;;;;;25.22;51.22;101542.16;5098554;27;45576;-72
2022/07/22 07:57:29;;;;;;;;;11.33;11.33;;;;;25.31;51.37;101545.03;5103434;27;45689;-72
2022/07/22 07:59:55;;;;;;;;;10.00;9.00;;;;;25.40;50.43;101544.16;5097241;27;50636;-72
2022/07/22 08:02:20;;;;;;;;;10.33;10.33;;;;;25.52;50.69;101536.69;5097604;27;45429;-72
2022/07/22 08:04:45;;;;;;;;;13.00;10.33;;;;;25.60;50.24;101524.03;5097504;27;45434;-72
2022/07/22 08:07:11;;;;;;;;;9.00;9.00;;;;;25.75;50.44;101529.03;5079111;27;45551;-72
2022/07/22 08:09:37;;;;;;;;;10.67;10.67;;;;;25.85;50.28;101529.88;5096895;27;47401;-71
2022/07/22 08:12:03;;;;;;;;;12.33;10.67;;;;;25.94;49.81;101526.28;5097244;27;45840;-71
2022/07/22 08:14:28;;;;;;;;;9.33;9.33;;;;;25.99;49.66;101518.53;5097183;27;45446;-72
2022/07/22 08:16:54;;;;;;;;;11.00;10.00;;;;;26.09;49.20;101521.22;5083753;27;45725;-71
2022/07/22 08:19:19;;;;;;;;;9.33;9.33;;;;;26.19;49.15;101521.16;5097309;27;45833;-71
2022/07/22 08:21:45;;;;;;;;;10.33;10.33;;;;;26.24;49.38;101511.50;5078481;27;45457;-71
2022/07/22 08:24:10;;;;;;;;;12.67;11.00;;;;;26.25;48.96;101510.50;5078756;27;45511;-71
2022/07/22 08:26:36;;;;;;;;;8.33;8.33;;;;;26.27;49.30;101515.78;5097443;27;45484;-71
2022/07/22 08:29:01;;;;;;;;;11.67;9.67;;;;;26.21;49.26;101500.03;5096842;27;47522;-71
2022/07/22 08:31:27;;;;;;;;;9.33;8.33;;;;;26.28;48.86;101501.13;5097272;27;45594;-71
2022/07/22 08:33:53;;;;;;;;;12.33;9.67;;;;;26.37;48.24;101513.03;5075481;28;45555;-72
2022/07/22 08:36:18;;;;;;;;;11.67;10.67;;;;;26.31;48.78;101509.88;5088916;27;45535;-72
2022/07/22 08:38:43;;;;;;;;;19.00;13.00;;;;;26.40;48.38;101516.31;5096530;27;45358;-72
2022/07/22 08:41:09;;;;;;;;;10.00;10.00;;;;;26.50;48.39;101517.16;5097075;27;45517;-72
2022/07/22 08:43:41;;;;;;;;;12.67;10.00;;;;;26.57;48.23;101511.09;5096708;27;45373;-72
2022/07/22 08:46:06;;;;;;;;;11.00;9.67;;;;;26.63;48.23;101500.41;5088115;27;45445;-72
2022/07/22 08:48:32;;;;;;;;;15.00;12.00;;;;;26.62;48.27;101476.81;5090963;27;46085;-72
2022/07/22 08:50:57;;;;;;;;;10.33;10.33;;;;;26.84;47.97;101482.84;5096885;27;45543;-72
2022/07/22 08:53:22;;;;;;;;;8.00;6.67;;;;;27.07;47.59;101464.09;5083824;27;45387;-73
2022/07/22 08:55:48;;;;;;;;;12.33;10.00;;;;;27.31;46.70;101460.72;5108356;27;45655;-72
2022/07/22 08:58:15;;;;;;;;;11.00;9.33;;;;;27.55;46.29;101451.81;5096620;27;45516;-72
2022/07/22 09:00:40;;;;;;;;;11.00;10.00;;;;;27.78;45.79;101428.31;5083642;27;45399;-72
2022/07/22 09:03:20;;;;;;;;;12.00;10.33;;;;;27.98;45.93;101408.94;5095452;27;45429;-72
2022/07/22 09:05:46;;;;;;;;;12.33;12.33;;;;;28.04;45.03;101374.53;5096894;27;45512;-72
2022/07/22 09:08:11;;;;;;;;;18.00;15.33;;;;;28.06;44.84;101391.66;5093780;27;46234;-71
2022/07/22 09:10:36;;;;;;;;;14.33;12.33;;;;;28.08;44.88;101415.16;5096891;27;45640;-70
2022/07/22 09:13:05;;;;;;;;;12.33;10.33;;;;;28.26;44.40;101427.88;5082115;27;45434;-70
2022/07/22 09:15:39;;;;;;;;;13.33;11.67;;;;;28.60;43.99;101439.66;5078388;27;45564;-70
2022/07/22 09:18:05;;;;;;;;;12.33;12.33;;;;;28.83;43.44;101452.75;5096180;27;46171;-71
2022/07/22 09:20:31;;;;;;;;;11.67;11.33;;;;;28.78;43.41;101472.44;5096023;27;45316;-71
2022/07/22 09:22:57;;;;;;;;;13.33;9.33;;;;;28.54;44.06;101492.47;5096244;27;45618;-73
2022/07/22 09:25:29;;;;;;;;;23.00;22.33;;;;;28.55;43.92;101509.78;5090439;27;45501;-72
2022/07/22 09:28:07;;;;;;;;;11.67;11.67;;;;;28.40;44.05;101498.53;5088941;27;46397;-73
2022/07/22 09:30:40;;;;;;;;;10.67;10.33;;;;;28.36;44.07;101492.53;5082093;27;45456;-72
2022/07/22 09:33:07;;;;;;;;;13.67;12.67;;;;;28.41;43.99;101492.03;5096343;27;45533;-73
2022/07/22 09:35:32;;;;;;;;;17.00;13.33;;;;;28.36;43.90;101480.72;5081860;27;45553;-72
2022/07/22 09:38:01;;;;;;;;;12.67;11.67;;;;;28.24;44.16;101482.91;5094582;27;47222;-71
2022/07/22 09:40:37;;;;;;;;;12.67;12.67;;;;;28.05;44.76;101478.53;5095858;27;45457;-73
2022/07/22 09:43:17;;;;;;;;;13.33;12.33;;;;;27.91;44.65;101455.31;5096116;27;45469;-72
2022/07/22 09:45:58;;;;;;;;;14.00;11.00;;;;;27.81;45.56;101464.63;5096160;27;45370;-72
2022/07/22 09:48:25;;;;;;;;;14.00;12.67;;;;;27.71;46.22;101470.25;5095852;27;45535;-72
2022/07/22 09:50:52;;;;;;;;;11.67;10.67;;;;;27.62;46.12;101473.94;5095373;27;45548;-72
2022/07/22 09:53:21;;;;;;;;;14.00;12.67;;;;;27.51;46.98;101483.28;5095617;27;45415;-69
2022/07/22 09:55:47;;;;;;;;;10.67;10.67;;;;;27.49;46.46;101477.13;5103480;27;45905;-69
2022/07/22 09:58:12;;;;;;;;;10.33;10.33;;;;;27.66;46.56;101489.03;5095375;27;46048;-69
2022/07/22 10:00:40;;;;;;;;;14.00;11.67;;;;;27.74;46.24;101481.72;5095368;27;45466;-69
2022/07/22 10:03:08;;;;;;;;;10.00;10.00;;;;;27.82;45.65;101489.16;5081008;27;45444;-69
2022/07/22 10:05:36;;;;;;;;;10.67;9.33;;;;;27.80;45.97;101474.75;5077117;27;45532;-69
2022/07/22 10:08:03;;;;;;;;;11.33;10.33;;;;;27.77;46.55;101475.94;5093238;27;47489;-69
2022/07/22 10:10:31;;;;;;;;;15.00;11.00;;;;;27.73;46.24;101477.28;5095754;27;45765;-74
2022/07/22 10:12:58;;;;;;;;;14.00;12.33;;;;;27.69;46.60;101472.28;5095663;27;45621;-73
2022/07/22 10:15:26;;;;;;;;;17.67;15.00;;;;;27.61;46.99;101473.09;5077566;27;45520;-74
2022/07/22 10:17:54;;;;;;;;;12.67;11.67;;;;;27.56;47.07;101470.84;5097295;27;46325;-74
2022/07/22 10:20:28;;;;;;;;;14.33;12.33;;;;;27.50;47.38;101463.25;5098914;27;45521;-74
2022/07/22 10:23:02;;;;;;;;;13.67;12.33;;;;;27.36;47.31;101436.44;5099057;27;45600;-73
2022/07/22 10:25:30;;;;;;;;;16.00;12.67;;;;;27.41;47.17;101458.72;5099351;27;45479;-74
2022/07/22 10:28:00;;;;;;;;;13.33;12.33;;;;;27.32;47.19;101455.09;5080770;27;48238;-73
2022/07/22 10:30:28;;;;;;;;;15.00;12.00;;;;;27.16;47.95;101433.03;5080408;27;45687;-73
2022/07/22 10:33:09;;;;;;;;;14.00;11.67;;;;;27.14;48.03;101441.38;5099165;27;45476;-73
2022/07/22 10:35:37;;;;;;;;;13.00;13.00;;;;;27.09;48.62;101446.50;5099183;27;45377;-73
2022/07/22 10:38:05;;;;;;;;;14.67;13.33;;;;;26.99;50.62;101442.09;5086344;27;46255;-74
2022/07/22 10:40:46;;;;;;;;;13.00;13.00;;;;;26.93;50.98;101436.25;5097463;27;45418;-74
2022/07/22 10:43:12;;;;;;;;;14.00;13.00;;;;;26.87;51.92;101412.25;5098996;27;45429;-74
2022/07/22 10:45:38;;;;;;;;;10.67;10.33;;;;;26.82;54.94;101400.94;5093200;27;45438;-74
2022/07/22 10:48:09;;;;;;;;;15.67;15.67;;;;;26.60;56.67;101355.78;5098781;27;46203;-73
2022/07/22 10:50:37;;;;;;;;;18.67;13.33;;;;;26.72;55.56;101373.66;5098539;27;45423;-73
2022/07/22 10:53:10;;;;;;;;;16.00;13.67;;;;;26.66;56.32;101359.75;5099058;27;45485;-74
2022/07/22 10:55:37;;;;;;;;;17.67;14.67;;;;;26.62;57.17;101348.28;5110826;27;45852;-74
2022/07/22 10:58:33;;;;;;;;;16.33;15.33;;;;;26.43;58.10;101332.84;5099318;27;45598;-74
2022/07/22 11:01:06;;;;;;;;;17.33;15.67;;;;;26.33;58.80;101313.78;5094459;27;45529;-74
2022/07/22 11:03:33;;;;;;;;;14.33;11.00;;;;;26.47;57.71;101319.72;5086289;27;46085;-73
2022/07/22 11:06:17;;;;;;;;;20.00;17.00;;;;;26.56;57.12;101296.94;5080040;27;45477;-75
2022/07/22 11:08:44;;;;;;;;;21.00;17.00;;;;;26.57;59.88;101275.94;5089871;27;46913;-74
2022/07/22 11:11:09;;;;;;;;;18.67;17.67;;;;;26.64;58.97;101263.34;5079273;27;45463;-74